sensor_id;sensor_type;location;lat;lon;timestamp;pressure;altitude;pressure_sealevel;temperature;humidity
76448;BME280;65284;51.040;13.722;2023-07-09T00:01:18;100266.63;;;22.55;50.71
76448;BME280;65284;51.040;13.722;2023-07-09T00:03:45;100263.28;;;22.30;51.17
76448;BME280;65284;51.040;13.722;2023-07-09T00:06:14;100270.69;;;22.22;51.43
76448;BME280;65284;51.040;13.722;2023-07-09T00:08:43;100269.50;;;22.18;51.83
76448;BME280;65284;51.040;13.722;2023-07-09T00:11:12;100270.72;;;22.04;52.15
76448;BME280;65284;51.040;13.722;2023-07-09T00:13:38;100269.06;;;22.03;52.79
76448;BME280;65284;51.040;13.722;2023-07-09T00:16:19;100274.94;;;22.18;52.83
76448;BME280;65284;51.040;13.722;2023-07-09T00:18:47;100275.97;;;22.17;52.83
76448;BME280;65284;51.040;13.722;2023-07-09T00:21:19;100266.84;;;22.54;51.93
76448;BME280;65284;51.040;13.722;2023-07-09T00:23:50;100267.72;;;22.66;51.90
76448;BME280;65284;51.040;13.722;2023-07-09T00:26:17;100268.69;;;22.30;51.77
76448;BME280;65284;51.040;13.722;2023-07-09T00:28:50;100271.19;;;22.01;51.25
76448;BME280;65284;51.040;13.722;2023-07-09T00:31:16;100273.44;;;22.04;51.75
76448;BME280;65284;51.040;13.722;2023-07-09T00:33:43;100273.00;;;21.89;51.91
76448;BME280;65284;51.040;13.722;2023-07-09T00:36:20;100278.41;;;21.89;51.91
76448;BME280;65284;51.040;13.722;2023-07-09T00:38:50;100267.03;;;21.31;52.65
76448;BME280;65284;51.040;13.722;2023-07-09T00:41:19;100267.66;;;21.52;52.72
76448;BME280;65284;51.040;13.722;2023-07-09T00:43:47;100271.03;;;21.47;52.78
76448;BME280;65284;51.040;13.722;2023-07-09T00:46:17;100260.19;;;21.29;53.03
76448;BME280;65284;51.040;13.722;2023-07-09T00:49:02;100258.31;;;21.11;53.32
76448;BME280;65284;51.040;13.722;2023-07-09T00:51:36;100261.91;;;21.05;53.82
76448;BME280;65284;51.040;13.722;2023-07-09T00:54:10;100259.53;;;21.15;53.74
76448;BME280;65284;51.040;13.722;2023-07-09T00:56:43;100256.47;;;21.30;53.57
76448;BME280;65284;51.040;13.722;2023-07-09T00:59:14;100267.28;;;21.48;52.90
76448;BME280;65284;51.040;13.722;2023-07-09T01:01:42;100263.06;;;21.16;53.22
76448;BME280;65284;51.040;13.722;2023-07-09T01:04:10;100257.56;;;21.04;53.74
76448;BME280;65284;51.040;13.722;2023-07-09T01:06:44;100262.34;;;20.83;54.39
76448;BME280;65284;51.040;13.722;2023-07-09T01:09:11;100256.84;;;20.72;55.20
76448;BME280;65284;51.040;13.722;2023-07-09T01:11:38;100259.19;;;20.61;55.53
76448;BME280;65284;51.040;13.722;2023-07-09T01:14:09;100258.38;;;20.86;54.54
76448;BME280;65284;51.040;13.722;2023-07-09T01:16:43;100251.28;;;20.85;54.67
76448;BME280;65284;51.040;13.722;2023-07-09T01:19:13;100260.72;;;21.01;54.13
76448;BME280;65284;51.040;13.722;2023-07-09T01:21:40;100259.91;;;21.00;54.01
76448;BME280;65284;51.040;13.722;2023-07-09T01:26:40;100257.44;;;20.74;54.43
76448;BME280;65284;51.040;13.722;2023-07-09T01:29:07;100262.50;;;20.88;54.62
76448;BME280;65284;51.040;13.722;2023-07-09T01:31:33;100252.44;;;20.96;54.68
76448;BME280;65284;51.040;13.722;2023-07-09T01:34:01;100257.19;;;21.19;53.50
76448;BME280;65284;51.040;13.722;2023-07-09T01:36:27;100253.78;;;20.86;54.28
76448;BME280;65284;51.040;13.722;2023-07-09T01:38:56;100260.34;;;20.47;55.11
76448;BME280;65284;51.040;13.722;2023-07-09T01:41:22;100262.50;;;20.32;55.61
76448;BME280;65284;51.040;13.722;2023-07-09T01:43:49;100259.69;;;20.20;55.69
76448;BME280;65284;51.040;13.722;2023-07-09T01:46:15;100253.31;;;20.39;55.55
76448;BME280;65284;51.040;13.722;2023-07-09T01:48:43;100263.06;;;20.40;55.40
76448;BME280;65284;51.040;13.722;2023-07-09T01:51:14;100260.22;;;20.35;55.93
76448;BME280;65284;51.040;13.722;2023-07-09T01:53:43;100264.19;;;20.33;55.70
76448;BME280;65284;51.040;13.722;2023-07-09T01:56:10;100265.66;;;19.97;56.44
76448;BME280;65284;51.040;13.722;2023-07-09T01:58:37;100257.53;;;20.35;55.82
76448;BME280;65284;51.040;13.722;2023-07-09T02:01:09;100256.28;;;20.63;55.08
76448;BME280;65284;51.040;13.722;2023-07-09T02:03:35;100260.22;;;20.35;56.51
76448;BME280;65284;51.040;13.722;2023-07-09T02:06:02;100258.78;;;20.33;56.68
76448;BME280;65284;51.040;13.722;2023-07-09T02:08:35;100267.19;;;20.11;56.77
76448;BME280;65284;51.040;13.722;2023-07-09T02:11:02;100258.66;;;20.21;56.90
76448;BME280;65284;51.040;13.722;2023-07-09T02:13:29;100251.97;;;20.55;56.21
76448;BME280;65284;51.040;13.722;2023-07-09T02:15:55;100261.16;;;20.48;56.72
76448;BME280;65284;51.040;13.722;2023-07-09T02:18:22;100251.63;;;20.45;56.70
76448;BME280;65284;51.040;13.722;2023-07-09T02:20:48;100247.94;;;20.39;56.85
76448;BME280;65284;51.040;13.722;2023-07-09T02:23:15;100255.59;;;20.42;57.33
76448;BME280;65284;51.040;13.722;2023-07-09T02:25:41;100252.09;;;20.67;55.94
76448;BME280;65284;51.040;13.722;2023-07-09T02:28:07;100262.94;;;20.29;57.04
76448;BME280;65284;51.040;13.722;2023-07-09T02:30:34;100264.03;;;19.89;58.83
76448;BME280;65284;51.040;13.722;2023-07-09T02:33:00;100255.94;;;19.89;58.59
76448;BME280;65284;51.040;13.722;2023-07-09T02:35:27;100262.34;;;19.95;58.84
76448;BME280;65284;51.040;13.722;2023-07-09T02:37:53;100252.56;;;20.32;57.82
76448;BME280;65284;51.040;13.722;2023-07-09T02:40:20;100261.00;;;20.11;58.27
76448;BME280;65284;51.040;13.722;2023-07-09T02:42:46;100268.78;;;19.94;58.71
76448;BME280;65284;51.040;13.722;2023-07-09T02:45:12;100257.69;;;20.09;58.11
76448;BME280;65284;51.040;13.722;2023-07-09T02:47:39;100265.94;;;20.14;57.99
76448;BME280;65284;51.040;13.722;2023-07-09T02:50:06;100262.03;;;20.10;58.12
76448;BME280;65284;51.040;13.722;2023-07-09T02:52:32;100263.00;;;20.22;57.88
76448;BME280;65284;51.040;13.722;2023-07-09T02:54:59;100261.09;;;19.97;57.86
76448;BME280;65284;51.040;13.722;2023-07-09T02:57:25;100271.88;;;19.97;57.45
76448;BME280;65284;51.040;13.722;2023-07-09T02:59:52;100269.66;;;19.88;57.07
76448;BME280;65284;51.040;13.722;2023-07-09T03:02:18;100270.75;;;19.73;57.42
76448;BME280;65284;51.040;13.722;2023-07-09T03:04:45;100268.66;;;19.75;57.32
76448;BME280;65284;51.040;13.722;2023-07-09T03:07:11;100265.13;;;19.75;57.07
76448;BME280;65284;51.040;13.722;2023-07-09T03:09:38;100276.88;;;19.87;57.00
76448;BME280;65284;51.040;13.722;2023-07-09T03:12:05;100273.00;;;19.76;56.75
76448;BME280;65284;51.040;13.722;2023-07-09T03:14:32;100277.69;;;19.94;56.21
76448;BME280;65284;51.040;13.722;2023-07-09T03:16:59;100270.09;;;19.78;56.34
76448;BME280;65284;51.040;13.722;2023-07-09T03:19:25;100280.88;;;19.78;56.60
76448;BME280;65284;51.040;13.722;2023-07-09T03:21:52;100288.19;;;19.71;56.51
76448;BME280;65284;51.040;13.722;2023-07-09T03:24:18;100286.16;;;19.46;56.98
76448;BME280;65284;51.040;13.722;2023-07-09T03:26:46;100290.69;;;19.66;56.43
76448;BME280;65284;51.040;13.722;2023-07-09T03:29:13;100289.03;;;19.65;56.71
76448;BME280;65284;51.040;13.722;2023-07-09T03:31:39;100287.75;;;19.61;56.96
76448;BME280;65284;51.040;13.722;2023-07-09T03:34:09;100285.41;;;19.84;55.96
76448;BME280;65284;51.040;13.722;2023-07-09T03:36:35;100293.97;;;19.74;55.96
76448;BME280;65284;51.040;13.722;2023-07-09T03:39:04;100292.31;;;19.67;56.07
76448;BME280;65284;51.040;13.722;2023-07-09T03:41:30;100287.00;;;19.47;55.85
76448;BME280;65284;51.040;13.722;2023-07-09T03:43:57;100287.84;;;19.34;56.60
76448;BME280;65284;51.040;13.722;2023-07-09T03:46:23;100285.34;;;19.39;56.23
76448;BME280;65284;51.040;13.722;2023-07-09T03:48:50;100295.31;;;19.32;56.27
76448;BME280;65284;51.040;13.722;2023-07-09T03:51:17;100280.81;;;19.33;56.60
76448;BME280;65284;51.040;13.722;2023-07-09T03:53:44;100289.09;;;19.25;56.74
76448;BME280;65284;51.040;13.722;2023-07-09T03:56:10;100293.81;;;19.43;56.33
76448;BME280;65284;51.040;13.722;2023-07-09T03:58:37;100296.94;;;19.40;56.25
76448;BME280;65284;51.040;13.722;2023-07-09T04:01:04;100290.31;;;19.42;56.53
76448;BME280;65284;51.040;13.722;2023-07-09T04:03:31;100299.63;;;19.46;56.69
76448;BME280;65284;51.040;13.722;2023-07-09T04:05:58;100298.41;;;19.36;56.43
76448;BME280;65284;51.040;13.722;2023-07-09T04:08:24;100294.06;;;19.35;56.67
76448;BME280;65284;51.040;13.722;2023-07-09T04:10:58;100295.69;;;19.42;56.64
76448;BME280;65284;51.040;13.722;2023-07-09T04:13:25;100293.63;;;19.44;56.44
76448;BME280;65284;51.040;13.722;2023-07-09T04:15:55;100285.34;;;19.39;56.57
76448;BME280;65284;51.040;13.722;2023-07-09T04:18:22;100296.31;;;19.44;56.16
76448;BME280;65284;51.040;13.722;2023-07-09T04:20:49;100292.81;;;19.44;56.26
76448;BME280;65284;51.040;13.722;2023-07-09T04:23:17;100298.38;;;19.42;55.95
76448;BME280;65284;51.040;13.722;2023-07-09T04:25:43;100306.69;;;19.34;55.87
76448;BME280;65284;51.040;13.722;2023-07-09T04:28:10;100298.38;;;19.42;56.15
76448;BME280;65284;51.040;13.722;2023-07-09T04:30:36;100300.25;;;19.42;56.04
76448;BME280;65284;51.040;13.722;2023-07-09T04:33:03;100307.69;;;19.53;55.27
76448;BME280;65284;51.040;13.722;2023-07-09T04:35:29;100309.13;;;19.55;55.55
76448;BME280;65284;51.040;13.722;2023-07-09T04:37:56;100313.06;;;19.73;55.30
76448;BME280;65284;51.040;13.722;2023-07-09T04:40:22;100307.66;;;19.66;55.25
76448;BME280;65284;51.040;13.722;2023-07-09T04:42:49;100308.22;;;19.82;54.58
76448;BME280;65284;51.040;13.722;2023-07-09T04:45:16;100303.25;;;19.85;54.64
76448;BME280;65284;51.040;13.722;2023-07-09T04:47:42;100307.78;;;19.91;54.66
76448;BME280;65284;51.040;13.722;2023-07-09T04:50:09;100301.78;;;19.89;54.52
76448;BME280;65284;51.040;13.722;2023-07-09T04:52:37;100306.53;;;19.87;54.82
76448;BME280;65284;51.040;13.722;2023-07-09T04:55:04;100312.13;;;19.92;54.57
76448;BME280;65284;51.040;13.722;2023-07-09T04:57:31;100315.00;;;19.97;54.62
76448;BME280;65284;51.040;13.722;2023-07-09T04:59:58;100321.19;;;20.05;54.74
76448;BME280;65284;51.040;13.722;2023-07-09T05:02:24;100329.31;;;19.98;54.75
76448;BME280;65284;51.040;13.722;2023-07-09T05:04:51;100327.44;;;19.98;54.79
76448;BME280;65284;51.040;13.722;2023-07-09T05:07:18;100330.25;;;20.17;54.55
76448;BME280;65284;51.040;13.722;2023-07-09T05:09:44;100325.66;;;20.24;54.37
76448;BME280;65284;51.040;13.722;2023-07-09T05:12:11;100316.50;;;20.25;54.21
76448;BME280;65284;51.040;13.722;2023-07-09T05:14:37;100324.78;;;20.30;54.07
76448;BME280;65284;51.040;13.722;2023-07-09T05:17:04;100313.06;;;20.43;53.86
76448;BME280;65284;51.040;13.722;2023-07-09T05:19:30;100315.19;;;20.34;54.13
76448;BME280;65284;51.040;13.722;2023-07-09T05:21:57;100318.59;;;20.23;54.51
76448;BME280;65284;51.040;13.722;2023-07-09T05:24:24;100319.78;;;20.34;53.91
76448;BME280;65284;51.040;13.722;2023-07-09T05:26:54;100330.50;;;20.40;54.44
76448;BME280;65284;51.040;13.722;2023-07-09T05:29:21;100324.69;;;20.43;54.03
76448;BME280;65284;51.040;13.722;2023-07-09T05:31:47;100331.47;;;20.59;53.73
76448;BME280;65284;51.040;13.722;2023-07-09T05:34:14;100324.94;;;20.74;53.18
76448;BME280;65284;51.040;13.722;2023-07-09T05:36:40;100325.41;;;20.64;54.30
76448;BME280;65284;51.040;13.722;2023-07-09T05:39:07;100332.34;;;20.78;54.05
76448;BME280;65284;51.040;13.722;2023-07-09T05:41:33;100325.25;;;20.84;53.95
76448;BME280;65284;51.040;13.722;2023-07-09T05:44:02;100326.00;;;20.91;52.46
76448;BME280;65284;51.040;13.722;2023-07-09T05:46:33;100326.06;;;20.84;52.84
76448;BME280;65284;51.040;13.722;2023-07-09T05:49:04;100320.66;;;20.84;53.12
76448;BME280;65284;51.040;13.722;2023-07-09T05:51:30;100325.44;;;20.89;53.79
76448;BME280;65284;51.040;13.722;2023-07-09T05:53:57;100329.22;;;21.06;52.84
76448;BME280;65284;51.040;13.722;2023-07-09T05:56:23;100326.63;;;21.18;52.59
76448;BME280;65284;51.040;13.722;2023-07-09T05:58:50;100327.97;;;21.27;52.30
76448;BME280;65284;51.040;13.722;2023-07-09T06:01:16;100327.97;;;21.27;52.02
76448;BME280;65284;51.040;13.722;2023-07-09T06:03:43;100326.03;;;21.34;52.14
76448;BME280;65284;51.040;13.722;2023-07-09T06:06:10;100324.81;;;21.30;52.29
76448;BME280;65284;51.040;13.722;2023-07-09T06:08:36;100325.16;;;21.41;52.43
76448;BME280;65284;51.040;13.722;2023-07-09T06:11:05;100326.75;;;21.67;51.11
76448;BME280;65284;51.040;13.722;2023-07-09T06:13:33;100325.75;;;21.61;52.00
76448;BME280;65284;51.040;13.722;2023-07-09T06:16:00;100324.84;;;21.67;51.43
76448;BME280;65284;51.040;13.722;2023-07-09T06:18:28;100321.41;;;21.78;50.87
76448;BME280;65284;51.040;13.722;2023-07-09T06:20:58;100323.66;;;21.81;51.21
76448;BME280;65284;51.040;13.722;2023-07-09T06:23:24;100323.34;;;21.90;51.29
76448;BME280;65284;51.040;13.722;2023-07-09T06:25:51;100324.16;;;21.90;50.36
76448;BME280;65284;51.040;13.722;2023-07-09T06:28:21;100328.19;;;21.99;50.36
76448;BME280;65284;51.040;13.722;2023-07-09T06:30:48;100326.22;;;22.25;49.91
76448;BME280;65284;51.040;13.722;2023-07-09T06:33:16;100335.47;;;22.17;49.79
76448;BME280;65284;51.040;13.722;2023-07-09T06:35:50;100335.03;;;22.20;50.38
76448;BME280;65284;51.040;13.722;2023-07-09T06:38:18;100327.78;;;22.33;49.76
76448;BME280;65284;51.040;13.722;2023-07-09T06:40:45;100339.19;;;22.35;49.84
76448;BME280;65284;51.040;13.722;2023-07-09T06:43:12;100334.84;;;22.34;49.41
76448;BME280;65284;51.040;13.722;2023-07-09T06:45:47;100331.78;;;22.42;50.50
76448;BME280;65284;51.040;13.722;2023-07-09T06:48:14;100333.34;;;22.49;49.45
76448;BME280;65284;51.040;13.722;2023-07-09T06:50:40;100338.94;;;22.66;49.45
76448;BME280;65284;51.040;13.722;2023-07-09T06:53:07;100338.25;;;22.83;48.61
76448;BME280;65284;51.040;13.722;2023-07-09T06:55:33;100334.22;;;22.74;48.70
76448;BME280;65284;51.040;13.722;2023-07-09T06:58:00;100338.22;;;22.71;48.82
76448;BME280;65284;51.040;13.722;2023-07-09T07:00:26;100341.41;;;22.68;48.35
76448;BME280;65284;51.040;13.722;2023-07-09T07:02:53;100336.34;;;22.71;48.58
76448;BME280;65284;51.040;13.722;2023-07-09T07:05:20;100338.50;;;22.93;48.08
76448;BME280;65284;51.040;13.722;2023-07-09T07:07:46;100347.16;;;23.02;48.15
76448;BME280;65284;51.040;13.722;2023-07-09T07:10:12;100342.53;;;23.02;48.06
76448;BME280;65284;51.040;13.722;2023-07-09T07:12:47;100337.81;;;23.21;48.16
76448;BME280;65284;51.040;13.722;2023-07-09T07:15:16;100336.88;;;23.15;47.88
76448;BME280;65284;51.040;13.722;2023-07-09T07:17:43;100339.25;;;23.24;47.81
76448;BME280;65284;51.040;13.722;2023-07-09T07:20:11;100334.91;;;23.23;48.40
76448;BME280;65284;51.040;13.722;2023-07-09T07:22:41;100342.06;;;23.29;48.54
76448;BME280;65284;51.040;13.722;2023-07-09T07:25:09;100338.28;;;23.30;48.35
76448;BME280;65284;51.040;13.722;2023-07-09T07:27:37;100337.34;;;23.36;47.25
76448;BME280;65284;51.040;13.722;2023-07-09T07:30:04;100331.56;;;23.44;47.13
76448;BME280;65284;51.040;13.722;2023-07-09T07:32:31;100326.97;;;23.45;47.82
76448;BME280;65284;51.040;13.722;2023-07-09T07:34:58;100338.16;;;23.48;47.22
76448;BME280;65284;51.040;13.722;2023-07-09T07:37:24;100335.44;;;23.72;46.94
76448;BME280;65284;51.040;13.722;2023-07-09T07:39:51;100347.34;;;23.71;46.87
76448;BME280;65284;51.040;13.722;2023-07-09T07:42:18;100338.75;;;23.74;46.07
76448;BME280;65284;51.040;13.722;2023-07-09T07:44:45;100338.59;;;23.80;45.82
76448;BME280;65284;51.040;13.722;2023-07-09T07:47:12;100338.38;;;23.82;45.81
76448;BME280;65284;51.040;13.722;2023-07-09T07:49:39;100338.06;;;23.95;45.79
76448;BME280;65284;51.040;13.722;2023-07-09T07:52:06;100343.13;;;24.03;46.65
76448;BME280;65284;51.040;13.722;2023-07-09T07:54:33;100336.56;;;24.16;45.69
76448;BME280;65284;51.040;13.722;2023-07-09T07:57:00;100335.19;;;24.14;45.12
76448;BME280;65284;51.040;13.722;2023-07-09T07:59:27;100333.16;;;24.21;45.90
76448;BME280;65284;51.040;13.722;2023-07-09T08:01:53;100339.34;;;24.62;44.76
76448;BME280;65284;51.040;13.722;2023-07-09T08:04:20;100334.53;;;24.52;44.53
76448;BME280;65284;51.040;13.722;2023-07-09T08:06:46;100341.81;;;24.46;44.61
76448;BME280;65284;51.040;13.722;2023-07-09T08:09:13;100345.09;;;24.65;44.18
76448;BME280;65284;51.040;13.722;2023-07-09T08:11:40;100346.00;;;24.54;44.68
76448;BME280;65284;51.040;13.722;2023-07-09T08:14:06;100334.53;;;24.52;44.34
76448;BME280;65284;51.040;13.722;2023-07-09T08:16:33;100333.09;;;24.61;43.56
76448;BME280;65284;51.040;13.722;2023-07-09T08:18:59;100333.41;;;24.65;43.54
76448;BME280;65284;51.040;13.722;2023-07-09T08:21:26;100327.66;;;24.78;43.24
76448;BME280;65284;51.040;13.722;2023-07-09T08:23:52;100326.00;;;24.77;42.77
76448;BME280;65284;51.040;13.722;2023-07-09T08:26:18;100331.78;;;24.97;43.18
76448;BME280;65284;51.040;13.722;2023-07-09T08:28:45;100330.97;;;24.97;42.40
76448;BME280;65284;51.040;13.722;2023-07-09T08:31:11;100324.22;;;25.00;42.75
76448;BME280;65284;51.040;13.722;2023-07-09T08:33:38;100327.34;;;24.91;43.33
76448;BME280;65284;51.040;13.722;2023-07-09T08:36:05;100311.84;;;25.09;42.05
76448;BME280;65284;51.040;13.722;2023-07-09T08:38:32;100316.78;;;25.12;42.07
76448;BME280;65284;51.040;13.722;2023-07-09T08:43:53;100310.69;;;25.43;41.57
76448;BME280;65284;51.040;13.722;2023-07-09T08:46:36;100309.97;;;25.48;41.51
76448;BME280;65284;51.040;13.722;2023-07-09T08:49:14;100306.53;;;25.58;41.50
76448;BME280;65284;51.040;13.722;2023-07-09T08:51:43;100312.22;;;25.78;41.78
76448;BME280;65284;51.040;13.722;2023-07-09T08:54:26;100306.81;;;26.00;39.95
76448;BME280;65284;51.040;13.722;2023-07-09T08:56:58;100310.94;;;26.30;40.11
76448;BME280;65284;51.040;13.722;2023-07-09T08:59:26;100306.38;;;26.41;40.54
76448;BME280;65284;51.040;13.722;2023-07-09T09:01:54;100315.03;;;26.60;39.88
76448;BME280;65284;51.040;13.722;2023-07-09T09:04:27;100314.50;;;26.63;40.26
76448;BME280;65284;51.040;13.722;2023-07-09T09:07:02;100313.78;;;26.72;40.28
76448;BME280;65284;51.040;13.722;2023-07-09T09:09:40;100304.56;;;26.78;39.47
76448;BME280;65284;51.040;13.722;2023-07-09T09:12:15;100304.59;;;26.84;39.86
76448;BME280;65284;51.040;13.722;2023-07-09T09:14:46;100305.38;;;27.16;39.24
76448;BME280;65284;51.040;13.722;2023-07-09T09:17:20;100308.75;;;26.96;38.88
76448;BME280;65284;51.040;13.722;2023-07-09T09:19:59;100307.63;;;27.30;38.52
76448;BME280;65284;51.040;13.722;2023-07-09T09:22:30;100298.44;;;27.46;38.09
76448;BME280;65284;51.040;13.722;2023-07-09T09:25:30;100306.50;;;27.20;38.28
76448;BME280;65284;51.040;13.722;2023-07-09T09:27:59;100298.38;;;27.36;37.02
76448;BME280;65284;51.040;13.722;2023-07-09T09:30:27;100309.28;;;27.31;37.02
76448;BME280;65284;51.040;13.722;2023-07-09T09:32:57;100298.44;;;27.46;35.09
76448;BME280;65284;51.040;13.722;2023-07-09T09:35:34;100296.88;;;27.60;34.02
76448;BME280;65284;51.040;13.722;2023-07-09T09:38:08;100302.91;;;27.67;35.23
76448;BME280;65284;51.040;13.722;2023-07-09T09:40:36;100302.69;;;27.79;33.73
76448;BME280;65284;51.040;13.722;2023-07-09T09:43:08;100294.75;;;27.73;34.10
76448;BME280;65284;51.040;13.722;2023-07-09T09:45:38;100301.22;;;27.56;34.21
76448;BME280;65284;51.040;13.722;2023-07-09T09:48:29;100294.13;;;27.55;33.35
76448;BME280;65284;51.040;13.722;2023-07-09T09:50:57;100299.06;;;27.68;32.93
76448;BME280;65284;51.040;13.722;2023-07-09T09:53:29;100296.34;;;27.63;33.44
76448;BME280;65284;51.040;13.722;2023-07-09T09:56:04;100296.34;;;27.63;33.41
76448;BME280;65284;51.040;13.722;2023-07-09T09:58:31;100294.16;;;27.65;32.81
76448;BME280;65284;51.040;13.722;2023-07-09T10:00:58;100300.69;;;27.59;31.79
76448;BME280;65284;51.040;13.722;2023-07-09T10:03:37;100293.16;;;27.82;32.00
76448;BME280;65284;51.040;13.722;2023-07-09T10:06:12;100301.63;;;27.85;31.63
76448;BME280;65284;51.040;13.722;2023-07-09T10:09:01;100284.91;;;27.77;32.79
76448;BME280;65284;51.040;13.722;2023-07-09T10:17:27;100286.94;;;28.12;32.58
76448;BME280;65284;51.040;13.722;2023-07-09T10:20:18;100282.88;;;28.25;32.66
76448;BME280;65284;51.040;13.722;2023-07-09T10:23:02;100280.66;;;28.11;32.33
76448;BME280;65284;51.040;13.722;2023-07-09T10:25:48;100284.53;;;28.31;31.42
76448;BME280;65284;51.040;13.722;2023-07-09T10:31:16;100278.56;;;28.54;31.84
76448;BME280;65284;51.040;13.722;2023-07-09T10:33:53;100271.97;;;28.71;31.47
76448;BME280;65284;51.040;13.722;2023-07-09T10:36:46;100271.16;;;28.65;30.82
76448;BME280;65284;51.040;13.722;2023-07-09T10:39:30;100278.50;;;28.75;30.13
76448;BME280;65284;51.040;13.722;2023-07-09T10:42:00;100275.81;;;28.65;30.99
76448;BME280;65284;51.040;13.722;2023-07-09T10:44:36;100273.06;;;28.60;30.90
76448;BME280;65284;51.040;13.722;2023-07-09T10:47:13;100268.69;;;28.69;31.02
76448;BME280;65284;51.040;13.722;2023-07-09T10:49:44;100260.47;;;28.84;31.44
76448;BME280;65284;51.040;13.722;2023-07-09T10:52:26;100267.59;;;28.75;31.00
76448;BME280;65284;51.040;13.722;2023-07-09T10:55:03;100261.56;;;28.78;30.76
76448;BME280;65284;51.040;13.722;2023-07-09T10:57:46;100258.81;;;28.93;30.09
76448;BME280;65284;51.040;13.722;2023-07-09T11:00:17;100266.97;;;29.19;29.13
76448;BME280;65284;51.040;13.722;2023-07-09T11:02:47;100271.94;;;28.91;29.52
76448;BME280;65284;51.040;13.722;2023-07-09T11:05:17;100276.31;;;29.08;29.14
76448;BME280;65284;51.040;13.722;2023-07-09T11:07:52;100272.44;;;29.19;28.58
76448;BME280;65284;51.040;13.722;2023-07-09T11:10:31;100265.84;;;29.35;29.26
76448;BME280;65284;51.040;13.722;2023-07-09T11:13:10;100263.16;;;29.15;28.95
76448;BME280;65284;51.040;13.722;2023-07-09T11:15:41;100260.44;;;29.10;29.61
76448;BME280;65284;51.040;13.722;2023-07-09T11:18:16;100258.25;;;29.07;29.56
76448;BME280;65284;51.040;13.722;2023-07-09T11:20:46;100255.78;;;29.15;29.43
76448;BME280;65284;51.040;13.722;2023-07-09T11:23:18;100248.94;;;29.13;29.13
76448;BME280;65284;51.040;13.722;2023-07-09T11:25:48;100251.66;;;29.18;29.18
76448;BME280;65284;51.040;13.722;2023-07-09T11:28:15;100252.75;;;29.22;29.01
76448;BME280;65284;51.040;13.722;2023-07-09T11:31:05;100247.25;;;29.27;28.79
76448;BME280;65284;51.040;13.722;2023-07-09T11:33:32;100242.28;;;29.39;28.62
76448;BME280;65284;51.040;13.722;2023-07-09T11:36:14;100244.69;;;29.51;29.09
76448;BME280;65284;51.040;13.722;2023-07-09T11:38:49;100240.34;;;29.40;29.27
76448;BME280;65284;51.040;13.722;2023-07-09T11:44:16;100241.13;;;29.51;28.42
76448;BME280;65284;51.040;13.722;2023-07-09T11:46:52;100234.94;;;29.84;28.07
76448;BME280;65284;51.040;13.722;2023-07-09T11:49:23;100231.16;;;29.75;27.59
76448;BME280;65284;51.040;13.722;2023-07-09T11:51:54;100231.75;;;29.72;28.21
76448;BME280;65284;51.040;13.722;2023-07-09T11:54:21;100227.28;;;29.86;28.52
76448;BME280;65284;51.040;13.722;2023-07-09T11:56:56;100235.31;;;30.12;27.13
76448;BME280;65284;51.040;13.722;2023-07-09T11:59:23;100231.13;;;29.85;27.17
76448;BME280;65284;51.040;13.722;2023-07-09T12:01:51;100226.00;;;30.08;26.67
76448;BME280;65284;51.040;13.722;2023-07-09T12:04:25;100230.41;;;30.09;26.18
76448;BME280;65284;51.040;13.722;2023-07-09T12:06:57;100227.13;;;30.07;26.61
76448;BME280;65284;51.040;13.722;2023-07-09T12:09:32;100221.75;;;29.97;27.04
76448;BME280;65284;51.040;13.722;2023-07-09T12:11:58;100233.22;;;29.99;26.58
76448;BME280;65284;51.040;13.722;2023-07-09T12:14:25;100234.81;;;30.05;26.63
76448;BME280;65284;51.040;13.722;2023-07-09T12:16:53;100234.66;;;30.30;26.19
76448;BME280;65284;51.040;13.722;2023-07-09T12:19:22;100217.19;;;30.21;26.42
76448;BME280;65284;51.040;13.722;2023-07-09T12:21:52;100220.94;;;30.30;26.19
76448;BME280;65284;51.040;13.722;2023-07-09T12:24:22;100219.97;;;30.11;25.89
76448;BME280;65284;51.040;13.722;2023-07-09T12:26:51;100204.66;;;30.10;26.01
76448;BME280;65284;51.040;13.722;2023-07-09T12:29:18;100204.56;;;30.54;25.64
76448;BME280;65284;51.040;13.722;2023-07-09T12:31:44;100206.88;;;30.42;26.18
76448;BME280;65284;51.040;13.722;2023-07-09T12:34:14;100195.56;;;30.49;26.05
76448;BME280;65284;51.040;13.722;2023-07-09T12:36:48;100192.06;;;30.67;26.51
76448;BME280;65284;51.040;13.722;2023-07-09T12:39:19;100198.63;;;30.71;26.09
76448;BME280;65284;51.040;13.722;2023-07-09T12:41:48;100186.13;;;30.60;25.31
76448;BME280;65284;51.040;13.722;2023-07-09T12:44:18;100185.19;;;30.46;26.29
76448;BME280;65284;51.040;13.722;2023-07-09T12:46:47;100186.09;;;30.65;25.34
76448;BME280;65284;51.040;13.722;2023-07-09T12:49:25;100183.44;;;30.55;25.67
76448;BME280;65284;51.040;13.722;2023-07-09T12:51:57;100181.88;;;30.73;25.46
76448;BME280;65284;51.040;13.722;2023-07-09T12:54:24;100185.81;;;30.91;25.74
76448;BME280;65284;51.040;13.722;2023-07-09T12:56:52;100182.66;;;30.78;25.60
76448;BME280;65284;51.040;13.722;2023-07-09T13:02:02;100172.78;;;30.82;24.90
76448;BME280;65284;51.040;13.722;2023-07-09T13:04:36;100176.91;;;31.04;25.53
76448;BME280;65284;51.040;13.722;2023-07-09T13:07:04;100174.03;;;30.90;24.39
76448;BME280;65284;51.040;13.722;2023-07-09T13:09:31;100177.19;;;31.02;24.50
76448;BME280;65284;51.040;13.722;2023-07-09T13:11:58;100168.88;;;31.08;24.68